Time;durP1;ratioP1;P1;durP2;ratioP2;P2;SDS_P1;SDS_P2;PMS_P1;PMS_P2;Temp;Humidity;BMP_temperature;BMP_pressure;BME280_temperature;BME280_humidity;BME280_pressure;Samples;Min_cycle;Max_cycle;Signal;HPM_P1;HPM_P2
2022/06/19 00:00:43;;;;;;;2.80;1.42;;;25.30;57.50;;;;;;5050788;28;20021;-69
2022/06/19 00:03:11;;;;;;;1.50;0.90;;;25.30;57.50;;;;;;5030666;28;20036;-69
2022/06/19 00:05:37;;;;;;;3.10;1.10;;;25.30;57.60;;;;;;5030758;28;20048;-69
2022/06/19 00:08:03;;;;;;;2.53;1.00;;;25.30;57.70;;;;;;5030576;28;20029;-69
2022/06/19 00:10:28;;;;;;;4.22;1.02;;;25.30;57.60;;;;;;5038272;28;20025;-69
2022/06/19 00:12:54;;;;;;;3.13;1.20;;;25.30;57.80;;;;;;5052956;28;20037;-69
2022/06/19 00:15:20;;;;;;;2.63;1.40;;;25.30;57.80;;;;;;5054076;28;20040;-69
2022/06/19 00:17:45;;;;;;;1.90;1.10;;;25.30;57.80;;;;;;5053971;28;20056;-69
2022/06/19 00:20:11;;;;;;;2.63;1.00;;;25.30;57.90;;;;;;5055162;28;20210;-69
2022/06/19 00:22:37;;;;;;;6.90;1.30;;;25.30;57.90;;;;;;5055234;28;20025;-69
2022/06/19 00:25:04;;;;;;;1.60;1.10;;;25.30;58.00;;;;;;5053558;28;20025;-69
2022/06/19 00:27:30;;;;;;;2.00;1.40;;;25.30;58.00;;;;;;5053907;28;20048;-69
2022/06/19 00:29:56;;;;;;;2.67;1.10;;;25.20;58.10;;;;;;5055181;28;20499;-69
2022/06/19 00:32:21;;;;;;;1.80;0.98;;;25.30;58.30;;;;;;5054744;28;20175;-69
2022/06/19 00:34:47;;;;;;;2.30;1.25;;;25.30;58.30;;;;;;5055145;28;20017;-69
2022/06/19 00:37:13;;;;;;;1.75;1.00;;;25.30;58.30;;;;;;5054668;28;20497;-69
2022/06/19 00:39:42;;;;;;;1.83;1.10;;;25.30;58.30;;;;;;5054585;28;20021;-69
2022/06/19 00:42:12;;;;;;;2.05;1.00;;;25.30;59.30;;;;;;5053505;28;20025;-69
2022/06/19 00:44:38;;;;;;;2.47;1.00;;;25.20;58.30;;;;;;5053740;28;20498;-69
2022/06/19 00:47:08;;;;;;;2.40;1.00;;;25.20;58.30;;;;;;5053327;28;20037;-69
2022/06/19 00:49:38;;;;;;;3.10;1.40;;;25.20;58.40;;;;;;5054583;28;20105;-69
2022/06/19 00:52:16;;;;;;;2.20;1.10;;;25.20;58.60;;;;;;5053180;28;20108;-69
2022/06/19 00:55:04;;;;;;;2.88;1.30;;;25.20;58.70;;;;;;5054786;28;20025;-69
2022/06/19 00:57:32;;;;;;;2.20;1.35;;;25.20;58.70;;;;;;5053157;28;20029;-69
2022/06/19 01:00:08;;;;;;;2.05;1.00;;;25.20;58.90;;;;;;5053352;28;20017;-69
2022/06/19 01:02:33;;;;;;;2.00;0.90;;;25.20;58.90;;;;;;5037135;28;20640;-69
2022/06/19 01:04:59;;;;;;;2.85;1.17;;;25.20;59.00;;;;;;5034712;28;20385;-69
2022/06/19 01:07:26;;;;;;;3.38;1.05;;;25.20;59.20;;;;;;5032956;28;20034;-69
2022/06/19 01:09:51;;;;;;;3.72;1.10;;;25.20;59.20;;;;;;5036079;28;20087;-69
2022/06/19 01:12:18;;;;;;;2.60;1.20;;;25.20;59.30;;;;;;5053969;28;20531;-69
2022/06/19 01:14:44;;;;;;;3.20;1.20;;;25.20;59.40;;;;;;5036707;28;20021;-69
2022/06/19 01:17:10;;;;;;;2.78;1.00;;;25.20;59.50;;;;;;5052857;28;20035;-69
2022/06/19 01:19:38;;;;;;;3.03;1.20;;;25.20;59.50;;;;;;5052760;28;20021;-69
2022/06/19 01:22:04;;;;;;;2.58;1.20;;;25.20;59.40;;;;;;5036379;28;20383;-69
2022/06/19 01:24:36;;;;;;;2.45;1.05;;;25.20;59.50;;;;;;5053461;28;20029;-69
2022/06/19 01:27:02;;;;;;;2.08;1.00;;;25.20;59.50;;;;;;5053927;28;20029;-69
2022/06/19 01:29:28;;;;;;;2.33;1.20;;;25.20;59.40;;;;;;5036408;28;20360;-69
2022/06/19 01:31:55;;;;;;;2.58;1.00;;;25.20;59.50;;;;;;5036099;28;20024;-69
2022/06/19 01:34:26;;;;;;;2.78;1.35;;;25.20;59.50;;;;;;5036173;28;20033;-69
2022/06/19 01:37:00;;;;;;;1.40;1.03;;;25.20;59.60;;;;;;5052397;28;20063;-69
2022/06/19 01:39:25;;;;;;;3.28;1.10;;;25.20;59.50;;;;;;5052658;28;20260;-69
2022/06/19 01:41:51;;;;;;;1.10;0.80;;;25.20;59.50;;;;;;5036020;28;20028;-69
2022/06/19 01:44:17;;;;;;;1.45;1.10;;;25.20;59.60;;;;;;5052302;28;20107;-69
2022/06/19 01:46:42;;;;;;;2.17;0.90;;;25.20;59.60;;;;;;5052292;28;20046;-69
2022/06/19 01:49:08;;;;;;;2.58;0.85;;;25.20;59.60;;;;;;5053534;28;20028;-69
2022/06/19 01:51:33;;;;;;;2.17;0.80;;;25.20;59.60;;;;;;5053251;28;20021;-69
2022/06/19 01:54:08;;;;;;;2.08;0.73;;;25.20;59.60;;;;;;5019355;28;20489;-69
2022/06/19 01:56:34;;;;;;;2.80;0.93;;;25.20;59.70;;;;;;5035794;28;20163;-69
2022/06/19 01:59:05;;;;;;;2.70;1.30;;;25.20;59.60;;;;;;5053148;28;20048;-69
2022/06/19 02:01:32;;;;;;;5.35;1.05;;;25.20;59.60;;;;;;5035843;28;20507;-69
2022/06/19 02:03:59;;;;;;;2.13;1.00;;;25.20;59.60;;;;;;5042237;28;20124;-69
2022/06/19 02:06:27;;;;;;;2.63;0.95;;;25.20;59.70;;;;;;5031691;28;20495;-69
2022/06/19 02:08:52;;;;;;;1.98;0.90;;;25.20;59.60;;;;;;5031956;28;20104;-69
2022/06/19 02:11:18;;;;;;;1.10;0.77;;;25.20;59.70;;;;;;5045417;28;20109;-69
2022/06/19 02:13:44;;;;;;;1.70;1.10;;;25.20;59.60;;;;;;5051865;28;20055;-69
2022/06/19 02:16:12;;;;;;;2.22;1.00;;;25.10;59.60;;;;;;5035365;28;20028;-69
2022/06/19 02:18:40;;;;;;;1.30;1.00;;;25.20;59.70;;;;;;5051887;28;20025;-69
2022/06/19 02:21:07;;;;;;;1.48;0.93;;;25.20;59.70;;;;;;5051638;28;20013;-69
2022/06/19 02:23:35;;;;;;;2.03;1.02;;;25.20;59.80;;;;;;5052790;28;20024;-69
2022/06/19 02:26:01;;;;;;;2.25;1.02;;;25.10;59.70;;;;;;5035247;28;20111;-69
2022/06/19 02:28:27;;;;;;;1.90;0.98;;;25.10;59.60;;;;;;5034910;28;20067;-69
2022/06/19 02:30:53;;;;;;;1.55;0.90;;;25.10;59.70;;;;;;5035213;28;20024;-69
2022/06/19 02:33:20;;;;;;;2.10;1.10;;;25.10;59.70;;;;;;5034630;28;20079;-69
2022/06/19 02:35:46;;;;;;;2.13;0.80;;;25.10;59.70;;;;;;5050832;28;20564;-69
2022/06/19 02:38:17;;;;;;;1.90;1.20;;;25.10;59.60;;;;;;5052269;28;20020;-69
2022/06/19 02:41:20;;;;;;;1.95;1.17;;;25.10;59.70;;;;;;5035579;28;20028;-69
2022/06/19 02:43:45;;;;;;;1.70;0.80;;;25.10;59.70;;;;;;5051252;28;20108;-69
2022/06/19 02:46:11;;;;;;;2.03;0.90;;;25.10;59.70;;;;;;5052415;28;20084;-69
2022/06/19 02:48:37;;;;;;;2.08;1.00;;;25.10;59.70;;;;;;5052253;28;20100;-69
2022/06/19 02:51:03;;;;;;;1.92;1.00;;;25.10;59.70;;;;;;5052612;28;20079;-69
2022/06/19 02:53:29;;;;;;;1.90;1.38;;;25.10;59.70;;;;;;5034596;28;20033;-69
2022/06/19 02:55:55;;;;;;;2.13;0.82;;;25.10;59.60;;;;;;5052555;28;20028;-69
2022/06/19 02:58:20;;;;;;;1.38;0.90;;;25.10;59.70;;;;;;5052216;28;20028;-69
2022/06/19 03:00:50;;;;;;;1.65;0.80;;;25.10;59.70;;;;;;5034875;28;20096;-69
2022/06/19 03:03:36;;;;;;;1.58;0.90;;;25.10;59.70;;;;;;5047847;28;20377;-69
2022/06/19 03:06:02;;;;;;;1.17;0.70;;;25.10;59.70;;;;;;5031373;28;20108;-69
2022/06/19 03:08:28;;;;;;;1.77;0.90;;;25.10;59.70;;;;;;5032333;28;20033;-69
2022/06/19 03:10:54;;;;;;;1.40;0.93;;;25.10;59.80;;;;;;5042395;28;20566;-69
2022/06/19 03:13:20;;;;;;;1.65;0.98;;;25.10;59.80;;;;;;5052075;28;20032;-69
2022/06/19 03:15:46;;;;;;;1.08;0.95;;;25.10;59.80;;;;;;5052183;28;20056;-69
2022/06/19 03:18:11;;;;;;;1.95;0.85;;;25.10;59.80;;;;;;5051894;28;20064;-69
2022/06/19 03:20:37;;;;;;;0.98;0.70;;;25.10;59.80;;;;;;5050954;28;20057;-69
2022/06/19 03:23:02;;;;;;;1.50;1.02;;;25.10;59.80;;;;;;5052093;28;20098;-69
2022/06/19 03:25:28;;;;;;;2.50;0.80;;;25.10;59.80;;;;;;5050670;28;20508;-69
2022/06/19 03:27:54;;;;;;;2.53;1.00;;;25.10;59.90;;;;;;5050937;28;20503;-69
2022/06/19 03:30:20;;;;;;;1.63;1.00;;;25.10;59.80;;;;;;5052008;28;20028;-69
2022/06/19 03:32:46;;;;;;;1.70;0.93;;;25.10;59.90;;;;;;5034253;28;20099;-69
2022/06/19 03:35:12;;;;;;;1.10;0.80;;;25.10;59.80;;;;;;5052086;28;20104;-69
2022/06/19 03:37:39;;;;;;;1.63;0.90;;;25.10;59.80;;;;;;5050621;28;20163;-69
2022/06/19 03:40:05;;;;;;;3.85;1.00;;;25.10;59.90;;;;;;5050840;28;20024;-69
2022/06/19 03:42:31;;;;;;;1.58;0.75;;;25.10;59.90;;;;;;5051845;28;20029;-69
2022/06/19 03:44:56;;;;;;;2.65;0.65;;;25.10;59.90;;;;;;5051799;28;20032;-69
2022/06/19 03:47:23;;;;;;;2.50;0.90;;;25.10;59.90;;;;;;5052373;28;20036;-69
2022/06/19 03:49:49;;;;;;;3.28;1.17;;;25.00;59.90;;;;;;5054550;28;20029;-69
2022/06/19 03:52:15;;;;;;;1.25;0.70;;;25.00;59.90;;;;;;5055731;28;20025;-69
2022/06/19 03:54:41;;;;;;;1.63;0.95;;;25.00;59.90;;;;;;5054662;28;20017;-69
2022/06/19 03:57:06;;;;;;;1.90;0.75;;;25.00;59.90;;;;;;5054462;28;20025;-69
2022/06/19 03:59:32;;;;;;;1.80;0.90;;;25.00;60.00;;;;;;5055378;28;20021;-69
2022/06/19 04:01:57;;;;;;;2.30;1.10;;;25.00;60.00;;;;;;5055535;28;20467;-70
2022/06/19 04:04:23;;;;;;;0.75;0.65;;;25.00;60.00;;;;;;5042026;28;20546;-69
2022/06/19 04:06:49;;;;;;;3.85;0.90;;;25.00;60.00;;;;;;5035675;28;20076;-70
2022/06/19 04:09:15;;;;;;;2.25;0.60;;;25.00;60.00;;;;;;5035447;28;20021;-69
2022/06/19 04:11:41;;;;;;;0.90;0.70;;;25.00;60.00;;;;;;5050785;28;20013;-69
2022/06/19 04:14:11;;;;;;;0.88;0.57;;;25.00;60.00;;;;;;5054253;28;20048;-69
2022/06/19 04:16:37;;;;;;;1.13;0.70;;;25.00;60.00;;;;;;5037826;28;20025;-69
2022/06/19 04:19:04;;;;;;;1.95;0.57;;;25.00;60.00;;;;;;5055256;28;20025;-69
2022/06/19 04:21:30;;;;;;;2.25;1.13;;;25.00;60.00;;;;;;5053910;28;20021;-69
2022/06/19 04:23:57;;;;;;;2.33;1.10;;;24.90;60.00;;;;;;5054191;28;20021;-69
2022/06/19 04:26:25;;;;;;;1.70;1.17;;;25.00;60.00;;;;;;5053847;28;20070;-69
2022/06/19 04:28:50;;;;;;;1.10;0.77;;;24.90;60.00;;;;;;5055062;28;20040;-69
2022/06/19 04:31:17;;;;;;;1.67;0.80;;;24.90;60.00;;;;;;5054941;28;20025;-69
2022/06/19 04:33:43;;;;;;;1.40;0.90;;;24.90;60.00;;;;;;5037166;28;20422;-69
2022/06/19 04:36:11;;;;;;;1.27;0.80;;;24.90;60.00;;;;;;5053835;28;20384;-69
2022/06/19 04:38:37;;;;;;;3.85;0.68;;;24.90;60.10;;;;;;5037201;28;20427;-69
2022/06/19 04:41:03;;;;;;;1.23;0.70;;;25.00;60.10;;;;;;5054711;28;20067;-69
2022/06/19 04:43:29;;;;;;;1.05;0.60;;;24.90;60.00;;;;;;5054653;28;20029;-69
2022/06/19 04:46:04;;;;;;;2.53;0.90;;;24.90;60.00;;;;;;5054445;28;20077;-69
2022/06/19 04:48:30;;;;;;;1.05;0.80;;;24.90;60.10;;;;;;5037312;28;20029;-69
2022/06/19 04:50:56;;;;;;;1.80;0.73;;;24.90;60.10;;;;;;5053603;28;20023;-69
2022/06/19 04:53:21;;;;;;;1.23;0.88;;;24.90;61.20;;;;;;5054573;28;20403;-69
2022/06/19 04:55:47;;;;;;;2.08;0.70;;;24.90;60.20;;;;;;5054423;28;20017;-69
2022/06/19 04:58:13;;;;;;;1.38;0.70;;;24.90;60.10;;;;;;5054444;28;20024;-69
2022/06/19 05:00:39;;;;;;;2.42;1.00;;;24.90;60.20;;;;;;5053351;28;20051;-69
2022/06/19 05:03:05;;;;;;;2.15;0.80;;;24.90;60.20;;;;;;5051758;28;20087;-69
2022/06/19 05:05:31;;;;;;;1.40;0.98;;;24.90;60.20;;;;;;5034306;28;20492;-69
2022/06/19 05:07:56;;;;;;;1.17;0.77;;;24.90;60.30;;;;;;5034420;28;20036;-69
2022/06/19 05:10:22;;;;;;;0.70;0.70;;;24.90;60.20;;;;;;5040138;28;20086;-69
2022/06/19 05:12:48;;;;;;;2.25;0.73;;;24.90;60.30;;;;;;5054114;28;20078;-69
2022/06/19 05:15:14;;;;;;;1.38;0.63;;;24.90;60.20;;;;;;5036524;28;20074;-69
2022/06/19 05:17:40;;;;;;;1.15;0.80;;;24.90;60.20;;;;;;5052811;28;20511;-69
2022/06/19 05:20:06;;;;;;;3.22;1.00;;;24.90;60.30;;;;;;5053168;28;20017;-69
2022/06/19 05:22:33;;;;;;;1.05;0.50;;;24.90;60.20;;;;;;5053882;28;20048;-69
2022/06/19 05:24:59;;;;;;;1.48;0.60;;;24.90;60.30;;;;;;5052913;28;20104;-69
2022/06/19 05:27:24;;;;;;;1.20;0.90;;;24.90;60.20;;;;;;5052599;28;20120;-69
2022/06/19 05:29:50;;;;;;;2.25;0.73;;;24.90;60.30;;;;;;5052592;28;20040;-69
2022/06/19 05:32:17;;;;;;;2.88;0.88;;;24.90;60.30;;;;;;5049906;28;20123;-69
2022/06/19 05:34:43;;;;;;;1.08;0.73;;;24.90;60.30;;;;;;5052460;28;20017;-69
2022/06/19 05:37:09;;;;;;;1.50;0.90;;;24.80;60.40;;;;;;5051793;28;20021;-69
2022/06/19 05:39:34;;;;;;;2.35;0.80;;;24.90;60.50;;;;;;5052449;28;20046;-69
2022/06/19 05:42:03;;;;;;;2.45;1.10;;;24.80;60.40;;;;;;5052428;28;20025;-69
2022/06/19 05:44:28;;;;;;;2.92;0.80;;;24.80;60.50;;;;;;5051352;28;20033;-70
2022/06/19 05:46:54;;;;;;;1.45;0.70;;;24.90;60.60;;;;;;5051515;28;20143;-70
2022/06/19 05:49:20;;;;;;;1.83;0.80;;;24.90;60.60;;;;;;5052193;28;20399;-70
2022/06/19 05:51:45;;;;;;;1.80;0.80;;;24.90;60.60;;;;;;5052455;28;20092;-69
2022/06/19 05:54:11;;;;;;;1.30;0.70;;;24.90;60.70;;;;;;5053539;28;20161;-69
2022/06/19 05:56:37;;;;;;;4.25;0.93;;;24.80;60.60;;;;;;5051953;28;20036;-69
2022/06/19 05:59:03;;;;;;;1.13;0.70;;;24.80;60.60;;;;;;5053537;28;20021;-70
2022/06/19 06:01:29;;;;;;;2.58;0.70;;;24.90;60.70;;;;;;5035623;28;20035;-70
2022/06/19 06:03:55;;;;;;;7.72;1.35;;;24.90;60.70;;;;;;5043970;28;20021;-69
2022/06/19 06:06:23;;;;;;;1.80;1.00;;;24.80;60.70;;;;;;5033241;28;20514;-69
2022/06/19 06:08:49;;;;;;;3.80;0.93;;;24.90;60.70;;;;;;5033059;28;20545;-70
2022/06/19 06:11:15;;;;;;;2.05;0.70;;;24.90;60.80;;;;;;5044766;28;20032;-69
2022/06/19 06:13:40;;;;;;;4.18;1.08;;;24.90;60.80;;;;;;5052874;28;20024;-69
2022/06/19 06:16:06;;;;;;;2.10;0.70;;;24.80;60.80;;;;;;5052951;28;20021;-69
2022/06/19 06:18:32;;;;;;;2.25;0.90;;;24.80;60.70;;;;;;5052886;28;20052;-69
2022/06/19 06:20:58;;;;;;;3.92;0.90;;;24.80;60.80;;;;;;5035171;28;20078;-69
2022/06/19 06:23:24;;;;;;;3.97;0.70;;;24.80;60.70;;;;;;5053016;28;20372;-70
2022/06/19 06:26:25;;;;;;;2.85;0.95;;;24.80;60.80;;;;;;5034676;28;20124;-70
2022/06/19 06:28:52;;;;;;;1.95;0.80;;;24.80;60.80;;;;;;5052400;28;20071;-70
2022/06/19 06:31:17;;;;;;;1.40;0.80;;;24.80;60.80;;;;;;5052780;28;20036;-69
2022/06/19 06:33:43;;;;;;;3.53;1.17;;;24.80;61.90;;;;;;5051456;28;20017;-69
2022/06/19 06:36:09;;;;;;;3.22;0.68;;;24.80;60.80;;;;;;5051485;28;20045;-70
2022/06/19 06:38:34;;;;;;;1.88;0.88;;;24.80;60.80;;;;;;5052704;28;20361;-69
2022/06/19 06:41:00;;;;;;;1.85;0.77;;;24.80;60.80;;;;;;5051117;28;20104;-70
2022/06/19 06:43:26;;;;;;;0.77;0.57;;;24.80;60.90;;;;;;5034898;28;20028;-70
2022/06/19 06:45:52;;;;;;;1.40;0.75;;;24.80;61.00;;;;;;5051224;28;20057;-69
2022/06/19 06:48:18;;;;;;;1.33;0.80;;;24.80;61.00;;;;;;5034903;28;20025;-70
2022/06/19 06:50:44;;;;;;;3.30;0.90;;;24.80;61.00;;;;;;5034707;28;20024;-69
2022/06/19 06:53:10;;;;;;;1.48;0.80;;;24.80;61.00;;;;;;5052421;28;20411;-69
2022/06/19 06:55:43;;;;;;;5.30;1.02;;;24.80;61.00;;;;;;5052432;28;20529;-70
2022/06/19 06:58:08;;;;;;;4.72;1.05;;;24.80;61.00;;;;;;5051646;28;20024;-69
2022/06/19 07:00:34;;;;;;;2.63;1.00;;;24.80;60.90;;;;;;5051031;28;20017;-69
2022/06/19 07:03:00;;;;;;;1.05;0.80;;;24.80;60.80;;;;;;5049039;28;20029;-69
2022/06/19 07:05:26;;;;;;;4.43;0.80;;;24.80;60.90;;;;;;5032573;28;20030;-70
2022/06/19 07:07:52;;;;;;;0.90;0.68;;;24.80;60.90;;;;;;5031189;28;20029;-69
2022/06/19 07:10:19;;;;;;;1.33;0.73;;;24.80;61.00;;;;;;5037295;28;20078;-70
2022/06/19 07:12:45;;;;;;;1.83;1.20;;;24.80;61.00;;;;;;5052151;28;20021;-70
2022/06/19 07:15:11;;;;;;;2.80;0.63;;;24.80;61.00;;;;;;5052286;28;20033;-70
2022/06/19 07:17:36;;;;;;;3.42;0.82;;;24.80;61.00;;;;;;5052189;28;20032;-70
2022/06/19 07:20:03;;;;;;;2.28;0.65;;;24.80;61.00;;;;;;5051034;28;20104;-70
2022/06/19 07:22:28;;;;;;;1.25;0.73;;;24.70;61.00;;;;;;5051759;28;20156;-70
2022/06/19 07:24:54;;;;;;;4.03;0.63;;;24.80;61.00;;;;;;5054881;28;20546;-70
2022/06/19 07:27:20;;;;;;;1.42;0.82;;;24.80;61.00;;;;;;5056420;28;20039;-70
2022/06/19 07:29:45;;;;;;;2.28;0.63;;;24.80;61.00;;;;;;5055960;28;20031;-69
2022/06/19 07:32:11;;;;;;;3.60;0.82;;;24.80;61.00;;;;;;5055063;28;20025;-69
2022/06/19 07:34:38;;;;;;;1.95;0.90;;;24.80;61.00;;;;;;5038603;28;20028;-69
2022/06/19 07:37:04;;;;;;;3.03;0.88;;;24.80;61.10;;;;;;5055069;28;20045;-69
2022/06/19 07:39:30;;;;;;;4.68;0.77;;;24.80;61.10;;;;;;5056004;28;20103;-69
2022/06/19 07:41:56;;;;;;;2.65;0.98;;;24.70;61.00;;;;;;5054714;28;20100;-69
2022/06/19 07:44:22;;;;;;;3.50;0.88;;;24.80;61.10;;;;;;5055952;28;20113;-69
2022/06/19 07:52:16;;;;;;;3.70;0.70;;;24.80;61.20;;;;;;5055587;28;20078;-69
2022/06/19 07:54:41;;;;;;;2.88;0.80;;;24.80;61.20;;;;;;5055867;28;20446;-69
2022/06/19 07:57:07;;;;;;;2.47;0.63;;;24.70;61.20;;;;;;5055675;28;20027;-69
2022/06/19 07:59:32;;;;;;;3.60;0.80;;;24.80;62.20;;;;;;5055744;28;20020;-69
2022/06/19 08:01:58;;;;;;;1.05;0.60;;;24.80;61.20;;;;;;5055620;28;20475;-70
2022/06/19 08:04:24;;;;;;;2.70;0.70;;;24.70;61.20;;;;;;5042024;28;20037;-69
2022/06/19 08:06:50;;;;;;;3.92;0.80;;;24.70;61.20;;;;;;5046804;28;20107;-69
2022/06/19 08:09:15;;;;;;;1.02;0.52;;;24.70;61.20;;;;;;5035146;28;20090;-69
2022/06/19 08:11:41;;;;;;;1.52;0.52;;;24.70;61.30;;;;;;5050997;28;20021;-69
2022/06/19 08:14:06;;;;;;;2.08;0.75;;;24.70;61.30;;;;;;5055915;28;20037;-69
2022/06/19 08:16:33;;;;;;;5.25;0.80;;;24.70;61.30;;;;;;5055920;28;20018;-69
2022/06/19 08:18:58;;;;;;;2.10;0.88;;;24.70;61.30;;;;;;5054781;28;20021;-69
2022/06/19 08:21:24;;;;;;;3.50;0.90;;;24.70;61.30;;;;;;5054456;28;20017;-69
2022/06/19 08:23:49;;;;;;;1.60;0.60;;;24.70;61.30;;;;;;5055603;28;20029;-69
2022/06/19 08:26:15;;;;;;;3.95;0.95;;;24.70;61.30;;;;;;5055724;28;20028;-69
2022/06/19 08:31:25;;;;;;;2.05;0.68;;;24.70;61.30;;;;;;5054756;28;20036;-70
2022/06/19 08:33:50;;;;;;;2.95;0.90;;;24.60;58.90;;;;;;5053279;28;20029;-71
2022/06/19 08:36:16;;;;;;;2.70;0.70;;;24.60;57.80;;;;;;5053535;28;20013;-70
2022/06/19 08:38:46;;;;;;;1.75;0.80;;;24.50;58.40;;;;;;5055288;28;20511;-70
2022/06/19 08:41:39;;;;;;;4.00;0.77;;;24.40;58.20;;;;;;5037860;28;20017;-70
2022/06/19 08:44:09;;;;;;;;;;;24.40;58.10;;;;;;5054546;28;20041;-70
2022/06/19 08:47:12;;;;;;;1.25;0.73;;;24.30;57.80;;;;;;5053877;28;19970;-70
2022/06/19 08:50:04;;;;;;;1.77;0.70;;;24.30;57.80;;;;;;5054159;28;20075;-70
2022/06/19 08:52:30;;;;;;;1.48;0.77;;;24.20;58.00;;;;;;5054823;28;20104;-70
2022/06/19 08:55:11;;;;;;;1.23;0.60;;;24.30;58.00;;;;;;5055066;28;20104;-70
2022/06/19 08:57:49;;;;;;;1.27;0.60;;;24.20;58.00;;;;;;5053940;28;20499;-70
2022/06/19 09:00:24;;;;;;;1.58;0.63;;;24.20;57.80;;;;;;5055101;28;20021;-70
2022/06/19 09:02:50;;;;;;;1.27;0.70;;;24.20;57.70;;;;;;5037880;28;20031;-72
2022/06/19 09:05:45;;;;;;;1.90;0.63;;;24.10;57.70;;;;;;5037483;28;20017;-74
2022/06/19 09:08:49;;;;;;;3.08;0.80;;;24.10;57.60;;;;;;5059462;28;20031;-74
2022/06/19 09:11:21;;;;;;;5.00;1.05;;;24.20;57.10;;;;;;5040027;28;20111;-73
2022/06/19 09:14:08;;;;;;;2.08;0.82;;;24.20;56.60;;;;;;5060744;28;20528;-73
2022/06/19 09:16:46;;;;;;;2.45;0.90;;;24.30;56.20;;;;;;5074928;28;20020;-73
2022/06/19 09:19:18;;;;;;;2.15;0.55;;;24.30;55.60;;;;;;5074727;28;20028;-73
2022/06/19 09:21:50;;;;;;;1.40;0.85;;;24.30;55.80;;;;;;5055883;28;20023;-73
2022/06/19 09:24:40;;;;;;;1.40;0.85;;;24.30;55.50;;;;;;5054604;28;20127;-73
2022/06/19 11:10:55;;;;;;;4.65;1.33;;;23.50;57.40;;;;;;6185298;22;1637266;-72
2022/06/19 11:13:21;;;;;;;3.45;1.27;;;23.50;57.90;;;;;;6227084;23;20046;-72
2022/06/19 11:16:00;;;;;;;1.85;0.82;;;23.50;58.10;;;;;;6226882;23;20000;-72
2022/06/19 11:18:26;;;;;;;2.58;1.10;;;23.40;58.20;;;;;;6252296;23;20003;-72
2022/06/19 11:21:04;;;;;;;5.65;1.73;;;23.40;58.20;;;;;;6253765;23;20000;-72
2022/06/19 11:23:35;;;;;;;3.95;1.10;;;23.40;58.00;;;;;;6252313;23;20007;-72
2022/06/19 11:26:01;;;;;;;3.63;1.13;;;23.40;58.30;;;;;;6226382;23;19996;-72
2022/06/19 11:29:00;;;;;;;2.88;0.93;;;23.40;58.10;;;;;;6252081;23;20475;-72
2022/06/19 11:31:36;;;;;;;4.00;1.15;;;23.40;58.20;;;;;;6253115;23;20007;-72
2022/06/19 11:37:23;;;;;;;1.67;0.80;;;23.40;58.30;;;;;;6252373;23;20146;-72
2022/06/19 11:39:58;;;;;;;2.42;1.00;;;23.30;58.20;;;;;;6253610;23;20127;-72
2022/06/19 11:42:26;;;;;;;1.70;0.90;;;23.30;58.40;;;;;;6253639;23;20316;-72
2022/06/19 11:45:13;;;;;;;1.90;0.98;;;23.30;58.50;;;;;;6253358;22;20004;-72
2022/06/19 11:47:45;;;;;;;2.53;0.88;;;23.30;58.60;;;;;;6242605;23;20011;-72
2022/06/19 11:50:27;;;;;;;1.52;0.75;;;23.30;58.50;;;;;;6252088;23;20004;-72
2022/06/19 11:52:53;;;;;;;2.63;0.85;;;23.30;58.50;;;;;;6253536;23;20004;-72
2022/06/19 11:55:27;;;;;;;4.22;0.90;;;23.30;58.40;;;;;;6253349;23;20339;-72
2022/06/19 11:57:54;;;;;;;2.72;0.77;;;23.30;58.30;;;;;;6253238;23;20416;-72
2022/06/19 12:00:30;;;;;;;3.28;1.00;;;23.30;58.50;;;;;;6251810;23;20007;-72
2022/06/19 12:02:58;;;;;;;2.42;0.82;;;23.30;58.30;;;;;;6253493;22;20387;-72
2022/06/19 12:05:33;;;;;;;3.13;0.93;;;23.30;58.30;;;;;;6226839;23;20069;-72
2022/06/19 12:08:21;;;;;;;1.98;0.80;;;23.20;58.20;;;;;;6251871;23;20003;-72
2022/06/19 12:10:55;;;;;;;2.45;0.80;;;23.20;58.50;;;;;;6248393;23;20089;-72
2022/06/19 12:13:25;;;;;;;1.58;0.70;;;23.20;58.50;;;;;;6219972;23;20071;-72
2022/06/19 12:16:01;;;;;;;2.70;0.98;;;23.20;59.50;;;;;;6220166;23;19996;-72
2022/06/19 12:18:28;;;;;;;3.47;0.90;;;23.20;58.60;;;;;;6220773;23;20004;-72
2022/06/19 12:21:02;;;;;;;3.05;1.13;;;23.20;58.60;;;;;;6220039;23;20004;-72
2022/06/19 12:23:34;;;;;;;2.20;1.10;;;23.20;59.40;;;;;;6244958;23;20004;-72
2022/06/19 12:26:06;;;;;;;2.55;0.85;;;23.20;58.50;;;;;;6220542;23;20436;-72
2022/06/19 12:28:38;;;;;;;2.20;0.80;;;23.20;58.30;;;;;;6219483;23;20470;-72
2022/06/19 12:31:11;;;;;;;1.67;1.05;;;23.20;58.20;;;;;;6220150;23;20015;-72
2022/06/19 12:34:04;;;;;;;1.38;0.80;;;23.20;58.20;;;;;;6244850;23;20070;-72
2022/06/19 12:36:34;;;;;;;3.15;1.20;;;23.20;58.30;;;;;;6246144;23;20321;-72
2022/06/19 12:39:00;;;;;;;2.10;0.90;;;23.10;58.10;;;;;;6220400;23;20008;-72
2022/06/19 12:41:39;;;;;;;2.53;1.10;;;23.10;58.10;;;;;;6219509;23;20061;-72
2022/06/19 12:44:28;;;;;;;2.72;0.82;;;23.10;57.90;;;;;;6244900;23;20040;-72
2022/06/19 12:47:11;;;;;;;2.55;1.00;;;23.10;58.10;;;;;;6220337;23;20000;-72
2022/06/19 12:49:42;;;;;;;2.50;1.02;;;23.10;58.10;;;;;;6246168;23;20007;-72
2022/06/19 12:52:11;;;;;;;2.08;0.90;;;23.10;58.40;;;;;;6244747;23;19997;-72
2022/06/19 12:54:37;;;;;;;1.70;0.98;;;23.10;58.40;;;;;;6245953;23;20003;-72
2022/06/19 12:57:37;;;;;;;2.63;0.95;;;23.10;58.40;;;;;;6245908;23;19996;-72
2022/06/19 13:00:19;;;;;;;1.58;0.70;;;23.10;58.30;;;;;;6195158;23;20427;-72
2022/06/19 13:03:00;;;;;;;3.70;1.13;;;23.10;58.50;;;;;;6244663;23;19996;-72
2022/06/19 13:05:49;;;;;;;2.45;1.10;;;23.10;58.40;;;;;;6246135;23;20004;-72
2022/06/19 13:08:30;;;;;;;2.08;1.00;;;23.10;58.40;;;;;;6182752;23;20092;-72
2022/06/19 13:11:33;;;;;;;2.78;0.90;;;23.10;58.40;;;;;;6159052;23;20052;-72
2022/06/19 13:14:18;;;;;;;2.60;1.02;;;23.10;58.20;;;;;;6166775;23;20400;-72
2022/06/19 13:17:00;;;;;;;2.83;1.90;;;23.10;58.40;;;;;;6158416;23;20013;-72
2022/06/19 13:20:12;;;;;;;2.63;1.60;;;23.10;58.50;;;;;;6182850;23;20025;-72
2022/06/19 13:22:40;;;;;;;4.97;1.73;;;23.10;58.50;;;;;;6179032;23;20660;-72
2022/06/19 13:25:20;;;;;;;2.10;1.40;;;23.00;58.80;;;;;;6182689;23;20562;-72
2022/06/19 13:28:09;;;;;;;3.75;1.63;;;23.10;58.80;;;;;;6158686;23;20341;-72
2022/06/19 13:30:38;;;;;;;4.88;2.10;;;23.10;58.90;;;;;;6182719;23;20535;-72
2022/06/19 13:33:36;;;;;;;2.80;1.60;;;23.10;59.00;;;;;;6182700;23;20049;-72
2022/06/19 13:36:13;;;;;;;7.03;2.08;;;23.10;59.10;;;;;;6157869;23;20425;-72
2022/06/19 13:39:20;;;;;;;3.30;1.80;;;23.10;59.50;;;;;;6182779;23;20088;-72
2022/06/19 13:42:13;;;;;;;4.53;2.00;;;23.10;59.20;;;;;;6176241;23;20041;-72
2022/06/19 13:44:57;;;;;;;7.15;2.53;;;23.10;59.50;;;;;;6172261;23;20004;-72
2022/06/19 13:47:39;;;;;;;5.95;3.00;;;23.10;59.40;;;;;;6245352;23;20382;-72
2022/06/19 13:50:26;;;;;;;7.32;3.10;;;23.10;59.70;;;;;;6221207;23;20007;-72
2022/06/19 13:53:15;;;;;;;10.07;4.18;;;23.20;59.80;;;;;;6244179;23;20007;-73
2022/06/19 13:56:18;;;;;;;8.25;3.92;;;23.10;59.70;;;;;;6243958;23;20000;-73
2022/06/19 13:58:43;;;;;;;12.30;4.53;;;23.20;59.80;;;;;;6245509;23;20027;-73
2022/06/19 14:01:25;;;;;;;10.75;4.85;;;23.20;59.90;;;;;;6245327;23;20339;-72
2022/06/19 14:04:47;;;;;;;10.43;4.47;;;23.20;59.90;;;;;;6243988;23;20026;-72
2022/06/19 14:07:17;;;;;;;9.30;4.13;;;23.10;59.70;;;;;;6182278;23;20080;-71
2022/06/19 14:10:10;;;;;;;12.20;4.95;;;23.10;59.70;;;;;;6154842;23;20020;-72
2022/06/19 14:12:39;;;;;;;8.32;3.97;;;23.30;59.50;;;;;;6179011;23;20032;-72
2022/06/19 14:15:25;;;;;;;10.00;4.30;;;23.30;59.30;;;;;;6157910;23;20048;-72
2022/06/19 14:18:00;;;;;;;8.60;4.40;;;23.40;59.10;;;;;;6158123;23;20005;-72
2022/06/19 14:20:31;;;;;;;12.68;4.35;;;23.40;58.90;;;;;;6182550;23;20029;-72
2022/06/19 14:23:08;;;;;;;6.75;3.72;;;23.50;58.90;;;;;;6157552;23;20080;-72
2022/06/19 14:25:40;;;;;;;10.68;3.75;;;23.50;58.90;;;;;;6132951;23;20005;-72
2022/06/19 14:28:33;;;;;;;10.05;3.53;;;23.50;59.00;;;;;;6182237;23;20005;-72
2022/06/19 14:30:59;;;;;;;7.50;3.35;;;23.60;58.80;;;;;;6182398;23;20451;-72
2022/06/19 14:33:32;;;;;;;8.30;3.15;;;23.60;58.50;;;;;;6157342;23;20476;-72
2022/06/19 14:36:18;;;;;;;6.30;3.30;;;23.60;58.70;;;;;;6157292;23;20016;-72
2022/06/19 14:38:43;;;;;;;6.85;3.42;;;23.60;58.60;;;;;;6159857;23;20009;-72
2022/06/19 14:41:39;;;;;;;7.90;3.17;;;23.70;58.50;;;;;;6157392;23;20019;-73
2022/06/19 14:44:15;;;;;;;5.03;2.45;;;23.70;58.10;;;;;;6218367;23;20340;-72
2022/06/19 14:47:02;;;;;;;6.25;3.28;;;23.70;58.50;;;;;;6219307;23;20000;-73
2022/06/19 14:49:38;;;;;;;5.93;3.03;;;23.70;58.40;;;;;;6244856;23;20006;-72
2022/06/19 14:52:27;;;;;;;6.55;2.50;;;23.80;58.10;;;;;;6243374;23;19996;-71
2022/06/19 14:55:09;;;;;;;5.07;2.60;;;23.80;58.20;;;;;;6237501;23;20004;-71
2022/06/19 14:57:41;;;;;;;7.22;2.53;;;23.80;58.20;;;;;;6244054;23;20424;-73
2022/06/19 15:00:12;;;;;;;5.18;2.45;;;23.80;58.20;;;;;;6220374;23;20415;-74